sensor_id;sensor_type;location;lat;lon;timestamp;P1;durP1;ratioP1;P2;durP2;ratioP2
57249;SDS011;43102;52.014;-0.680;2022-08-24T00:00:00;4.30;;;3.20;;
57249;SDS011;43102;52.014;-0.680;2022-08-24T00:01:00;4.30;;;3.20;;
57249;SDS011;43102;52.014;-0.680;2022-08-24T00:02:01;4.30;;;3.20;;
57249;SDS011;43102;52.014;-0.680;2022-08-24T00:03:01;4.30;;;3.20;;
57249;SDS011;43102;52.014;-0.680;2022-08-24T00:04:00;4.30;;;3.20;;
57249;SDS011;43102;52.014;-0.680;2022-08-24T00:05:00;4.30;;;3.20;;
57249;SDS011;43102;52.014;-0.680;2022-08-24T00:06:01;4.30;;;3.20;;
57249;SDS011;43102;52.014;-0.680;2022-08-24T00:07:01;4.30;;;3.20;;
57249;SDS011;43102;52.014;-0.680;2022-08-24T00:08:01;4.30;;;3.20;;
57249;SDS011;43102;52.014;-0.680;2022-08-24T00:09:00;4.30;;;3.20;;
57249;SDS011;43102;52.014;-0.680;2022-08-24T00:10:00;3.40;;;2.90;;
57249;SDS011;43102;52.014;-0.680;2022-08-24T00:11:00;3.40;;;2.90;;
57249;SDS011;43102;52.014;-0.680;2022-08-24T00:12:01;3.40;;;2.90;;
57249;SDS011;43102;52.014;-0.680;2022-08-24T00:13:00;3.40;;;2.90;;
57249;SDS011;43102;52.014;-0.680;2022-08-24T00:14:00;3.40;;;2.90;;
57249;SDS011;43102;52.014;-0.680;2022-08-24T00:15:01;3.40;;;2.90;;
57249;SDS011;43102;52.014;-0.680;2022-08-24T00:16:01;3.40;;;2.90;;
57249;SDS011;43102;52.014;-0.680;2022-08-24T00:17:01;3.40;;;2.90;;
57249;SDS011;43102;52.014;-0.680;2022-08-24T00:18:00;3.40;;;2.90;;
57249;SDS011;43102;52.014;-0.680;2022-08-24T00:19:00;3.40;;;2.90;;
57249;SDS011;43102;52.014;-0.680;2022-08-24T00:20:01;3.40;;;2.90;;
57249;SDS011;43102;52.014;-0.680;2022-08-24T00:21:01;3.40;;;2.90;;
57249;SDS011;43102;52.014;-0.680;2022-08-24T00:22:00;3.40;;;2.90;;
57249;SDS011;43102;52.014;-0.680;2022-08-24T00:23:00;3.40;;;2.90;;
57249;SDS011;43102;52.014;-0.680;2022-08-24T00:24:03;3.40;;;2.90;;
57249;SDS011;43102;52.014;-0.680;2022-08-24T00:25:00;3.40;;;2.90;;
57249;SDS011;43102;52.014;-0.680;2022-08-24T00:26:00;3.40;;;2.90;;
57249;SDS011;43102;52.014;-0.680;2022-08-24T00:27:00;3.40;;;2.90;;
57249;SDS011;43102;52.014;-0.680;2022-08-24T00:28:00;3.40;;;2.90;;
57249;SDS011;43102;52.014;-0.680;2022-08-24T00:29:07;3.40;;;2.90;;
57249;SDS011;43102;52.014;-0.680;2022-08-24T00:30:00;3.40;;;2.90;;
57249;SDS011;43102;52.014;-0.680;2022-08-24T00:31:00;3.40;;;2.90;;
57249;SDS011;43102;52.014;-0.680;2022-08-24T00:32:00;3.40;;;2.90;;
57249;SDS011;43102;52.014;-0.680;2022-08-24T00:33:00;3.40;;;2.90;;
57249;SDS011;43102;52.014;-0.680;2022-08-24T00:34:00;3.40;;;2.90;;
57249;SDS011;43102;52.014;-0.680;2022-08-24T00:35:00;3.40;;;2.90;;
57249;SDS011;43102;52.014;-0.680;2022-08-24T00:36:00;3.40;;;2.90;;
57249;SDS011;43102;52.014;-0.680;2022-08-24T00:37:00;3.40;;;2.90;;
57249;SDS011;43102;52.014;-0.680;2022-08-24T00:38:00;3.40;;;2.90;;
57249;SDS011;43102;52.014;-0.680;2022-08-24T00:39:01;3.40;;;2.90;;
57249;SDS011;43102;52.014;-0.680;2022-08-24T00:40:01;4.60;;;3.10;;
57249;SDS011;43102;52.014;-0.680;2022-08-24T00:41:01;4.60;;;3.10;;
57249;SDS011;43102;52.014;-0.680;2022-08-24T00:42:00;4.60;;;3.10;;
57249;SDS011;43102;52.014;-0.680;2022-08-24T00:43:04;4.60;;;3.10;;
57249;SDS011;43102;52.014;-0.680;2022-08-24T00:44:03;4.60;;;3.10;;
57249;SDS011;43102;52.014;-0.680;2022-08-24T00:45:00;4.60;;;3.10;;
57249;SDS011;43102;52.014;-0.680;2022-08-24T00:46:19;4.60;;;3.10;;
57249;SDS011;43102;52.014;-0.680;2022-08-24T00:47:13;4.60;;;3.10;;
57249;SDS011;43102;52.014;-0.680;2022-08-24T00:48:07;4.60;;;3.10;;
57249;SDS011;43102;52.014;-0.680;2022-08-24T00:49:07;4.60;;;3.10;;
57249;SDS011;43102;52.014;-0.680;2022-08-24T00:50:05;4.60;;;3.10;;
57249;SDS011;43102;52.014;-0.680;2022-08-24T00:51:05;4.60;;;3.10;;
57249;SDS011;43102;52.014;-0.680;2022-08-24T00:53:05;4.60;;;3.10;;
57249;SDS011;43102;52.014;-0.680;2022-08-24T00:54:06;4.60;;;3.10;;
57249;SDS011;43102;52.014;-0.680;2022-08-24T00:55:09;4.60;;;3.10;;
57249;SDS011;43102;52.014;-0.680;2022-08-24T00:56:03;4.60;;;3.10;;
57249;SDS011;43102;52.014;-0.680;2022-08-24T00:57:04;4.60;;;3.10;;
57249;SDS011;43102;52.014;-0.680;2022-08-24T00:58:04;4.60;;;3.10;;
57249;SDS011;43102;52.014;-0.680;2022-08-24T00:59:06;4.60;;;3.10;;
57249;SDS011;43102;52.014;-0.680;2022-08-24T01:00:09;4.60;;;3.10;;
57249;SDS011;43102;52.014;-0.680;2022-08-24T01:01:02;4.60;;;3.10;;
57249;SDS011;43102;52.014;-0.680;2022-08-24T01:02:16;4.60;;;3.10;;
57249;SDS011;43102;52.014;-0.680;2022-08-24T01:03:04;4.60;;;3.10;;
57249;SDS011;43102;52.014;-0.680;2022-08-24T01:04:00;4.60;;;3.10;;
57249;SDS011;43102;52.014;-0.680;2022-08-24T01:05:04;4.60;;;3.10;;
57249;SDS011;43102;52.014;-0.680;2022-08-24T01:06:00;4.60;;;3.10;;
57249;SDS011;43102;52.014;-0.680;2022-08-24T01:07:00;4.60;;;3.10;;
57249;SDS011;43102;52.014;-0.680;2022-08-24T01:08:02;4.60;;;3.10;;
57249;SDS011;43102;52.014;-0.680;2022-08-24T01:09:00;4.60;;;3.10;;
57249;SDS011;43102;52.014;-0.680;2022-08-24T01:10:03;4.00;;;3.10;;
57249;SDS011;43102;52.014;-0.680;2022-08-24T01:11:04;4.00;;;3.10;;
57249;SDS011;43102;52.014;-0.680;2022-08-24T01:12:00;4.00;;;3.10;;
57249;SDS011;43102;52.014;-0.680;2022-08-24T01:13:03;4.00;;;3.10;;
57249;SDS011;43102;52.014;-0.680;2022-08-24T01:14:02;4.00;;;3.10;;
57249;SDS011;43102;52.014;-0.680;2022-08-24T01:15:03;4.00;;;3.10;;
57249;SDS011;43102;52.014;-0.680;2022-08-24T01:16:02;4.00;;;3.10;;
57249;SDS011;43102;52.014;-0.680;2022-08-24T01:17:10;4.00;;;3.10;;
57249;SDS011;43102;52.014;-0.680;2022-08-24T01:18:12;4.00;;;3.10;;
57249;SDS011;43102;52.014;-0.680;2022-08-24T01:19:00;4.00;;;3.10;;
57249;SDS011;43102;52.014;-0.680;2022-08-24T01:20:04;4.00;;;3.10;;
57249;SDS011;43102;52.014;-0.680;2022-08-24T01:21:06;4.00;;;3.10;;
57249;SDS011;43102;52.014;-0.680;2022-08-24T01:23:12;4.00;;;3.10;;
57249;SDS011;43102;52.014;-0.680;2022-08-24T01:24:03;4.00;;;3.10;;
57249;SDS011;43102;52.014;-0.680;2022-08-24T01:25:00;4.00;;;3.10;;
57249;SDS011;43102;52.014;-0.680;2022-08-24T01:26:04;4.00;;;3.10;;
57249;SDS011;43102;52.014;-0.680;2022-08-24T01:27:00;4.00;;;3.10;;
57249;SDS011;43102;52.014;-0.680;2022-08-24T01:28:07;4.00;;;3.10;;
57249;SDS011;43102;52.014;-0.680;2022-08-24T01:29:08;4.00;;;3.10;;
57249;SDS011;43102;52.014;-0.680;2022-08-24T01:30:03;4.00;;;3.10;;
57249;SDS011;43102;52.014;-0.680;2022-08-24T01:31:00;4.00;;;3.10;;
57249;SDS011;43102;52.014;-0.680;2022-08-24T01:32:00;4.00;;;3.10;;
57249;SDS011;43102;52.014;-0.680;2022-08-24T01:33:03;4.00;;;3.10;;
57249;SDS011;43102;52.014;-0.680;2022-08-24T01:34:01;4.00;;;3.10;;
57249;SDS011;43102;52.014;-0.680;2022-08-24T01:35:00;4.00;;;3.10;;
57249;SDS011;43102;52.014;-0.680;2022-08-24T01:36:04;4.00;;;3.10;;
57249;SDS011;43102;52.014;-0.680;2022-08-24T01:37:00;4.00;;;3.10;;
57249;SDS011;43102;52.014;-0.680;2022-08-24T01:38:05;4.00;;;3.10;;
57249;SDS011;43102;52.014;-0.680;2022-08-24T01:39:05;4.00;;;3.10;;
57249;SDS011;43102;52.014;-0.680;2022-08-24T01:40:04;2.40;;;2.10;;
57249;SDS011;43102;52.014;-0.680;2022-08-24T01:41:02;2.40;;;2.10;;
57249;SDS011;43102;52.014;-0.680;2022-08-24T01:42:01;2.40;;;2.10;;
57249;SDS011;43102;52.014;-0.680;2022-08-24T01:43:00;2.40;;;2.10;;
57249;SDS011;43102;52.014;-0.680;2022-08-24T01:44:00;2.40;;;2.10;;
57249;SDS011;43102;52.014;-0.680;2022-08-24T01:45:01;2.40;;;2.10;;
57249;SDS011;43102;52.014;-0.680;2022-08-24T01:46:00;2.40;;;2.10;;
57249;SDS011;43102;52.014;-0.680;2022-08-24T01:47:08;2.40;;;2.10;;
57249;SDS011;43102;52.014;-0.680;2022-08-24T01:48:01;2.40;;;2.10;;
57249;SDS011;43102;52.014;-0.680;2022-08-24T01:49:00;2.40;;;2.10;;
57249;SDS011;43102;52.014;-0.680;2022-08-24T01:50:01;2.40;;;2.10;;
57249;SDS011;43102;52.014;-0.680;2022-08-24T01:51:00;2.40;;;2.10;;
57249;SDS011;43102;52.014;-0.680;2022-08-24T01:52:00;2.40;;;2.10;;
57249;SDS011;43102;52.014;-0.680;2022-08-24T01:53:06;2.40;;;2.10;;
57249;SDS011;43102;52.014;-0.680;2022-08-24T01:54:02;2.40;;;2.10;;
57249;SDS011;43102;52.014;-0.680;2022-08-24T01:55:00;2.40;;;2.10;;
57249;SDS011;43102;52.014;-0.680;2022-08-24T01:56:00;2.40;;;2.10;;
57249;SDS011;43102;52.014;-0.680;2022-08-24T01:57:01;2.40;;;2.10;;
57249;SDS011;43102;52.014;-0.680;2022-08-24T01:58:02;2.40;;;2.10;;
57249;SDS011;43102;52.014;-0.680;2022-08-24T01:59:00;2.40;;;2.10;;
57249;SDS011;43102;52.014;-0.680;2022-08-24T02:00:01;2.40;;;2.10;;
57249;SDS011;43102;52.014;-0.680;2022-08-24T02:01:00;2.40;;;2.10;;
57249;SDS011;43102;52.014;-0.680;2022-08-24T02:02:05;2.40;;;2.10;;
57249;SDS011;43102;52.014;-0.680;2022-08-24T02:03:01;2.40;;;2.10;;
57249;SDS011;43102;52.014;-0.680;2022-08-24T02:04:03;2.40;;;2.10;;
57249;SDS011;43102;52.014;-0.680;2022-08-24T02:05:00;2.40;;;2.10;;
57249;SDS011;43102;52.014;-0.680;2022-08-24T02:06:00;2.40;;;2.10;;
57249;SDS011;43102;52.014;-0.680;2022-08-24T02:07:00;2.40;;;2.10;;
57249;SDS011;43102;52.014;-0.680;2022-08-24T02:08:00;2.40;;;2.10;;
57249;SDS011;43102;52.014;-0.680;2022-08-24T02:09:01;2.40;;;2.10;;
57249;SDS011;43102;52.014;-0.680;2022-08-24T02:10:00;3.10;;;2.40;;
57249;SDS011;43102;52.014;-0.680;2022-08-24T02:11:00;3.10;;;2.40;;
57249;SDS011;43102;52.014;-0.680;2022-08-24T02:12:01;3.10;;;2.40;;
57249;SDS011;43102;52.014;-0.680;2022-08-24T02:13:02;3.10;;;2.40;;
57249;SDS011;43102;52.014;-0.680;2022-08-24T02:14:02;3.10;;;2.40;;
57249;SDS011;43102;52.014;-0.680;2022-08-24T02:15:01;3.10;;;2.40;;
57249;SDS011;43102;52.014;-0.680;2022-08-24T02:16:01;3.10;;;2.40;;
57249;SDS011;43102;52.014;-0.680;2022-08-24T02:17:04;3.10;;;2.40;;
57249;SDS011;43102;52.014;-0.680;2022-08-24T02:18:00;3.10;;;2.40;;
57249;SDS011;43102;52.014;-0.680;2022-08-24T02:19:00;3.10;;;2.40;;
57249;SDS011;43102;52.014;-0.680;2022-08-24T02:20:01;3.10;;;2.40;;
57249;SDS011;43102;52.014;-0.680;2022-08-24T02:21:00;3.10;;;2.40;;
57249;SDS011;43102;52.014;-0.680;2022-08-24T02:22:00;3.10;;;2.40;;
57249;SDS011;43102;52.014;-0.680;2022-08-24T02:23:00;3.10;;;2.40;;
57249;SDS011;43102;52.014;-0.680;2022-08-24T02:24:00;3.10;;;2.40;;
57249;SDS011;43102;52.014;-0.680;2022-08-24T02:25:00;3.10;;;2.40;;
57249;SDS011;43102;52.014;-0.680;2022-08-24T02:26:01;3.10;;;2.40;;
57249;SDS011;43102;52.014;-0.680;2022-08-24T02:27:01;3.10;;;2.40;;
57249;SDS011;43102;52.014;-0.680;2022-08-24T02:28:01;3.10;;;2.40;;
57249;SDS011;43102;52.014;-0.680;2022-08-24T02:29:04;3.10;;;2.40;;
57249;SDS011;43102;52.014;-0.680;2022-08-24T02:30:00;3.10;;;2.40;;
57249;SDS011;43102;52.014;-0.680;2022-08-24T02:31:01;3.10;;;2.40;;
57249;SDS011;43102;52.014;-0.680;2022-08-24T02:32:00;3.10;;;2.40;;
57249;SDS011;43102;52.014;-0.680;2022-08-24T02:33:00;3.10;;;2.40;;
57249;SDS011;43102;52.014;-0.680;2022-08-24T02:34:00;3.10;;;2.40;;
57249;SDS011;43102;52.014;-0.680;2022-08-24T02:35:00;3.10;;;2.40;;
57249;SDS011;43102;52.014;-0.680;2022-08-24T02:36:01;3.10;;;2.40;;
57249;SDS011;43102;52.014;-0.680;2022-08-24T02:37:00;3.10;;;2.40;;
57249;SDS011;43102;52.014;-0.680;2022-08-24T02:38:00;3.10;;;2.40;;
57249;SDS011;43102;52.014;-0.680;2022-08-24T02:39:00;3.10;;;2.40;;
57249;SDS011;43102;52.014;-0.680;2022-08-24T02:40:00;1.80;;;1.70;;
57249;SDS011;43102;52.014;-0.680;2022-08-24T02:41:00;1.80;;;1.70;;
57249;SDS011;43102;52.014;-0.680;2022-08-24T02:42:00;1.80;;;1.70;;
57249;SDS011;43102;52.014;-0.680;2022-08-24T02:43:00;1.80;;;1.70;;
57249;SDS011;43102;52.014;-0.680;2022-08-24T02:44:01;1.80;;;1.70;;
57249;SDS011;43102;52.014;-0.680;2022-08-24T02:45:00;1.80;;;1.70;;
57249;SDS011;43102;52.014;-0.680;2022-08-24T02:46:00;1.80;;;1.70;;
57249;SDS011;43102;52.014;-0.680;2022-08-24T02:47:00;1.80;;;1.70;;
57249;SDS011;43102;52.014;-0.680;2022-08-24T02:48:00;1.80;;;1.70;;
57249;SDS011;43102;52.014;-0.680;2022-08-24T02:49:10;1.80;;;1.70;;
57249;SDS011;43102;52.014;-0.680;2022-08-24T02:50:01;1.80;;;1.70;;
57249;SDS011;43102;52.014;-0.680;2022-08-24T02:51:00;1.80;;;1.70;;
57249;SDS011;43102;52.014;-0.680;2022-08-24T02:52:00;1.80;;;1.70;;
57249;SDS011;43102;52.014;-0.680;2022-08-24T02:53:00;1.80;;;1.70;;
57249;SDS011;43102;52.014;-0.680;2022-08-24T02:54:02;1.80;;;1.70;;
57249;SDS011;43102;52.014;-0.680;2022-08-24T02:55:00;1.80;;;1.70;;
57249;SDS011;43102;52.014;-0.680;2022-08-24T02:56:00;1.80;;;1.70;;
57249;SDS011;43102;52.014;-0.680;2022-08-24T02:57:00;1.80;;;1.70;;
57249;SDS011;43102;52.014;-0.680;2022-08-24T02:58:00;1.80;;;1.70;;
57249;SDS011;43102;52.014;-0.680;2022-08-24T02:59:00;1.80;;;1.70;;
57249;SDS011;43102;52.014;-0.680;2022-08-24T03:00:00;1.80;;;1.70;;
57249;SDS011;43102;52.014;-0.680;2022-08-24T03:01:01;1.80;;;1.70;;
57249;SDS011;43102;52.014;-0.680;2022-08-24T03:02:00;1.80;;;1.70;;
57249;SDS011;43102;52.014;-0.680;2022-08-24T03:03:00;1.80;;;1.70;;
57249;SDS011;43102;52.014;-0.680;2022-08-24T03:04:00;1.80;;;1.70;;
57249;SDS011;43102;52.014;-0.680;2022-08-24T03:05:00;1.80;;;1.70;;
57249;SDS011;43102;52.014;-0.680;2022-08-24T03:06:00;1.80;;;1.70;;
57249;SDS011;43102;52.014;-0.680;2022-08-24T03:07:00;1.80;;;1.70;;
57249;SDS011;43102;52.014;-0.680;2022-08-24T03:08:00;1.80;;;1.70;;
57249;SDS011;43102;52.014;-0.680;2022-08-24T03:09:00;1.80;;;1.70;;
57249;SDS011;43102;52.014;-0.680;2022-08-24T03:10:00;1.90;;;1.60;;
57249;SDS011;43102;52.014;-0.680;2022-08-24T03:11:00;1.90;;;1.60;;
57249;SDS011;43102;52.014;-0.680;2022-08-24T03:12:00;1.90;;;1.60;;
57249;SDS011;43102;52.014;-0.680;2022-08-24T03:13:01;1.90;;;1.60;;
57249;SDS011;43102;52.014;-0.680;2022-08-24T03:14:00;1.90;;;1.60;;
57249;SDS011;43102;52.014;-0.680;2022-08-24T03:15:01;1.90;;;1.60;;
57249;SDS011;43102;52.014;-0.680;2022-08-24T03:16:01;1.90;;;1.60;;
57249;SDS011;43102;52.014;-0.680;2022-08-24T03:17:00;1.90;;;1.60;;
57249;SDS011;43102;52.014;-0.680;2022-08-24T03:18:00;1.90;;;1.60;;
57249;SDS011;43102;52.014;-0.680;2022-08-24T03:19:00;1.90;;;1.60;;
57249;SDS011;43102;52.014;-0.680;2022-08-24T03:20:02;1.90;;;1.60;;
57249;SDS011;43102;52.014;-0.680;2022-08-24T03:21:01;1.90;;;1.60;;
57249;SDS011;43102;52.014;-0.680;2022-08-24T03:22:00;1.90;;;1.60;;
57249;SDS011;43102;52.014;-0.680;2022-08-24T03:23:00;1.90;;;1.60;;
57249;SDS011;43102;52.014;-0.680;2022-08-24T03:24:00;1.90;;;1.60;;
57249;SDS011;43102;52.014;-0.680;2022-08-24T03:25:00;1.90;;;1.60;;
57249;SDS011;43102;52.014;-0.680;2022-08-24T03:26:00;1.90;;;1.60;;
57249;SDS011;43102;52.014;-0.680;2022-08-24T03:27:00;1.90;;;1.60;;
57249;SDS011;43102;52.014;-0.680;2022-08-24T03:28:01;1.90;;;1.60;;
57249;SDS011;43102;52.014;-0.680;2022-08-24T03:29:01;1.90;;;1.60;;
57249;SDS011;43102;52.014;-0.680;2022-08-24T03:30:00;1.90;;;1.60;;
57249;SDS011;43102;52.014;-0.680;2022-08-24T03:31:00;1.90;;;1.60;;
57249;SDS011;43102;52.014;-0.680;2022-08-24T03:32:00;1.90;;;1.60;;
57249;SDS011;43102;52.014;-0.680;2022-08-24T03:33:00;1.90;;;1.60;;
57249;SDS011;43102;52.014;-0.680;2022-08-24T03:34:00;1.90;;;1.60;;
57249;SDS011;43102;52.014;-0.680;2022-08-24T03:35:01;1.90;;;1.60;;
57249;SDS011;43102;52.014;-0.680;2022-08-24T03:36:00;1.90;;;1.60;;
57249;SDS011;43102;52.014;-0.680;2022-08-24T03:37:00;1.90;;;1.60;;
57249;SDS011;43102;52.014;-0.680;2022-08-24T03:38:00;1.90;;;1.60;;
57249;SDS011;43102;52.014;-0.680;2022-08-24T03:39:00;1.90;;;1.60;;
57249;SDS011;43102;52.014;-0.680;2022-08-24T03:40:00;1.50;;;1.40;;
57249;SDS011;43102;52.014;-0.680;2022-08-24T03:41:00;1.50;;;1.40;;
57249;SDS011;43102;52.014;-0.680;2022-08-24T03:42:00;1.50;;;1.40;;
57249;SDS011;43102;52.014;-0.680;2022-08-24T03:43:01;1.50;;;1.40;;
57249;SDS011;43102;52.014;-0.680;2022-08-24T03:44:00;1.50;;;1.40;;
57249;SDS011;43102;52.014;-0.680;2022-08-24T03:45:00;1.50;;;1.40;;
57249;SDS011;43102;52.014;-0.680;2022-08-24T03:46:03;1.50;;;1.40;;
57249;SDS011;43102;52.014;-0.680;2022-08-24T03:47:00;1.50;;;1.40;;
57249;SDS011;43102;52.014;-0.680;2022-08-24T03:48:00;1.50;;;1.40;;
57249;SDS011;43102;52.014;-0.680;2022-08-24T03:49:00;1.50;;;1.40;;
57249;SDS011;43102;52.014;-0.680;2022-08-24T03:50:00;1.50;;;1.40;;
57249;SDS011;43102;52.014;-0.680;2022-08-24T03:51:00;1.50;;;1.40;;
57249;SDS011;43102;52.014;-0.680;2022-08-24T03:52:00;1.50;;;1.40;;
57249;SDS011;43102;52.014;-0.680;2022-08-24T03:53:00;1.50;;;1.40;;
57249;SDS011;43102;52.014;-0.680;2022-08-24T03:54:00;1.50;;;1.40;;
57249;SDS011;43102;52.014;-0.680;2022-08-24T03:55:02;1.50;;;1.40;;
57249;SDS011;43102;52.014;-0.680;2022-08-24T03:56:07;1.50;;;1.40;;
57249;SDS011;43102;52.014;-0.680;2022-08-24T03:57:00;1.50;;;1.40;;
57249;SDS011;43102;52.014;-0.680;2022-08-24T03:58:00;1.50;;;1.40;;
57249;SDS011;43102;52.014;-0.680;2022-08-24T03:59:00;1.50;;;1.40;;
57249;SDS011;43102;52.014;-0.680;2022-08-24T04:00:02;1.50;;;1.40;;
57249;SDS011;43102;52.014;-0.680;2022-08-24T04:01:01;1.50;;;1.40;;
57249;SDS011;43102;52.014;-0.680;2022-08-24T04:02:00;1.50;;;1.40;;
57249;SDS011;43102;52.014;-0.680;2022-08-24T04:03:00;1.50;;;1.40;;
57249;SDS011;43102;52.014;-0.680;2022-08-24T04:04:00;1.50;;;1.40;;
57249;SDS011;43102;52.014;-0.680;2022-08-24T04:05:00;1.50;;;1.40;;
57249;SDS011;43102;52.014;-0.680;2022-08-24T04:06:01;1.50;;;1.40;;
57249;SDS011;43102;52.014;-0.680;2022-08-24T04:07:00;1.50;;;1.40;;
57249;SDS011;43102;52.014;-0.680;2022-08-24T04:08:00;1.50;;;1.40;;
57249;SDS011;43102;52.014;-0.680;2022-08-24T04:09:00;1.50;;;1.40;;
57249;SDS011;43102;52.014;-0.680;2022-08-24T04:10:00;1.90;;;1.80;;
57249;SDS011;43102;52.014;-0.680;2022-08-24T04:11:01;1.90;;;1.80;;
57249;SDS011;43102;52.014;-0.680;2022-08-24T04:12:00;1.90;;;1.80;;
57249;SDS011;43102;52.014;-0.680;2022-08-24T04:13:01;1.90;;;1.80;;
57249;SDS011;43102;52.014;-0.680;2022-08-24T04:14:00;1.90;;;1.80;;
57249;SDS011;43102;52.014;-0.680;2022-08-24T04:15:00;1.90;;;1.80;;
57249;SDS011;43102;52.014;-0.680;2022-08-24T04:16:10;1.90;;;1.80;;
57249;SDS011;43102;52.014;-0.680;2022-08-24T04:17:00;1.90;;;1.80;;
57249;SDS011;43102;52.014;-0.680;2022-08-24T04:18:00;1.90;;;1.80;;
57249;SDS011;43102;52.014;-0.680;2022-08-24T04:19:00;1.90;;;1.80;;
57249;SDS011;43102;52.014;-0.680;2022-08-24T04:20:00;1.90;;;1.80;;
57249;SDS011;43102;52.014;-0.680;2022-08-24T04:21:00;1.90;;;1.80;;
57249;SDS011;43102;52.014;-0.680;2022-08-24T04:22:00;1.90;;;1.80;;
57249;SDS011;43102;52.014;-0.680;2022-08-24T04:23:01;1.90;;;1.80;;
57249;SDS011;43102;52.014;-0.680;2022-08-24T04:24:01;1.90;;;1.80;;
57249;SDS011;43102;52.014;-0.680;2022-08-24T04:25:00;1.90;;;1.80;;
57249;SDS011;43102;52.014;-0.680;2022-08-24T04:26:03;1.90;;;1.80;;
57249;SDS011;43102;52.014;-0.680;2022-08-24T04:27:00;1.90;;;1.80;;
57249;SDS011;43102;52.014;-0.680;2022-08-24T04:28:00;1.90;;;1.80;;
57249;SDS011;43102;52.014;-0.680;2022-08-24T04:29:01;1.90;;;1.80;;
57249;SDS011;43102;52.014;-0.680;2022-08-24T04:30:00;1.90;;;1.80;;
57249;SDS011;43102;52.014;-0.680;2022-08-24T04:31:04;1.90;;;1.80;;
57249;SDS011;43102;52.014;-0.680;2022-08-24T04:32:00;1.90;;;1.80;;
57249;SDS011;43102;52.014;-0.680;2022-08-24T04:33:00;1.90;;;1.80;;
57249;SDS011;43102;52.014;-0.680;2022-08-24T04:34:00;1.90;;;1.80;;
57249;SDS011;43102;52.014;-0.680;2022-08-24T04:35:00;1.90;;;1.80;;
57249;SDS011;43102;52.014;-0.680;2022-08-24T04:36:00;1.90;;;1.80;;
57249;SDS011;43102;52.014;-0.680;2022-08-24T04:37:00;1.90;;;1.80;;
57249;SDS011;43102;52.014;-0.680;2022-08-24T04:38:00;1.90;;;1.80;;
57249;SDS011;43102;52.014;-0.680;2022-08-24T04:39:00;1.90;;;1.80;;
57249;SDS011;43102;52.014;-0.680;2022-08-24T04:40:03;1.90;;;1.30;;
57249;SDS011;43102;52.014;-0.680;2022-08-24T04:41:03;1.90;;;1.30;;
57249;SDS011;43102;52.014;-0.680;2022-08-24T04:42:03;1.90;;;1.30;;
57249;SDS011;43102;52.014;-0.680;2022-08-24T04:43:00;1.90;;;1.30;;
57249;SDS011;43102;52.014;-0.680;2022-08-24T04:44:00;1.90;;;1.30;;
57249;SDS011;43102;52.014;-0.680;2022-08-24T04:45:01;1.90;;;1.30;;
57249;SDS011;43102;52.014;-0.680;2022-08-24T04:46:04;1.90;;;1.30;;
57249;SDS011;43102;52.014;-0.680;2022-08-24T04:47:00;1.90;;;1.30;;
57249;SDS011;43102;52.014;-0.680;2022-08-24T04:48:00;1.90;;;1.30;;
57249;SDS011;43102;52.014;-0.680;2022-08-24T04:49:00;1.90;;;1.30;;
57249;SDS011;43102;52.014;-0.680;2022-08-24T04:50:00;1.90;;;1.30;;
57249;SDS011;43102;52.014;-0.680;2022-08-24T04:51:02;1.90;;;1.30;;
57249;SDS011;43102;52.014;-0.680;2022-08-24T04:52:00;1.90;;;1.30;;
57249;SDS011;43102;52.014;-0.680;2022-08-24T04:53:01;1.90;;;1.30;;
57249;SDS011;43102;52.014;-0.680;2022-08-24T04:54:00;1.90;;;1.30;;
57249;SDS011;43102;52.014;-0.680;2022-08-24T04:55:00;1.90;;;1.30;;
57249;SDS011;43102;52.014;-0.680;2022-08-24T04:56:00;1.90;;;1.30;;
57249;SDS011;43102;52.014;-0.680;2022-08-24T04:57:00;1.90;;;1.30;;
57249;SDS011;43102;52.014;-0.680;2022-08-24T04:58:00;1.90;;;1.30;;
57249;SDS011;43102;52.014;-0.680;2022-08-24T04:59:00;1.90;;;1.30;;
57249;SDS011;43102;52.014;-0.680;2022-08-24T05:00:02;1.90;;;1.30;;
57249;SDS011;43102;52.014;-0.680;2022-08-24T05:01:01;1.90;;;1.30;;
57249;SDS011;43102;52.014;-0.680;2022-08-24T05:02:00;1.90;;;1.30;;
57249;SDS011;43102;52.014;-0.680;2022-08-24T05:03:00;1.90;;;1.30;;
57249;SDS011;43102;52.014;-0.680;2022-08-24T05:04:00;1.90;;;1.30;;
57249;SDS011;43102;52.014;-0.680;2022-08-24T05:05:00;1.90;;;1.30;;
57249;SDS011;43102;52.014;-0.680;2022-08-24T05:06:00;1.90;;;1.30;;
57249;SDS011;43102;52.014;-0.680;2022-08-24T05:07:00;1.90;;;1.30;;
57249;SDS011;43102;52.014;-0.680;2022-08-24T05:08:00;1.90;;;1.30;;
57249;SDS011;43102;52.014;-0.680;2022-08-24T05:09:04;1.90;;;1.30;;
57249;SDS011;43102;52.014;-0.680;2022-08-24T05:10:00;2.10;;;1.40;;
57249;SDS011;43102;52.014;-0.680;2022-08-24T05:11:05;2.10;;;1.40;;
57249;SDS011;43102;52.014;-0.680;2022-08-24T05:12:00;2.10;;;1.40;;
57249;SDS011;43102;52.014;-0.680;2022-08-24T05:13:00;2.10;;;1.40;;
57249;SDS011;43102;52.014;-0.680;2022-08-24T05:14:00;2.10;;;1.40;;
57249;SDS011;43102;52.014;-0.680;2022-08-24T05:15:00;2.10;;;1.40;;
57249;SDS011;43102;52.014;-0.680;2022-08-24T05:16:00;2.10;;;1.40;;
57249;SDS011;43102;52.014;-0.680;2022-08-24T05:17:03;2.10;;;1.40;;
57249;SDS011;43102;52.014;-0.680;2022-08-24T05:18:01;2.10;;;1.40;;
57249;SDS011;43102;52.014;-0.680;2022-08-24T05:19:01;2.10;;;1.40;;
57249;SDS011;43102;52.014;-0.680;2022-08-24T05:20:00;2.10;;;1.40;;
57249;SDS011;43102;52.014;-0.680;2022-08-24T05:21:00;2.10;;;1.40;;
57249;SDS011;43102;52.014;-0.680;2022-08-24T05:22:00;2.10;;;1.40;;
57249;SDS011;43102;52.014;-0.680;2022-08-24T05:23:04;2.10;;;1.40;;
57249;SDS011;43102;52.014;-0.680;2022-08-24T05:24:00;2.10;;;1.40;;
57249;SDS011;43102;52.014;-0.680;2022-08-24T05:25:00;2.10;;;1.40;;
57249;SDS011;43102;52.014;-0.680;2022-08-24T05:26:11;2.10;;;1.40;;
57249;SDS011;43102;52.014;-0.680;2022-08-24T05:27:00;2.10;;;1.40;;
57249;SDS011;43102;52.014;-0.680;2022-08-24T05:28:00;2.10;;;1.40;;
57249;SDS011;43102;52.014;-0.680;2022-08-24T05:29:01;2.10;;;1.40;;
57249;SDS011;43102;52.014;-0.680;2022-08-24T05:30:02;2.10;;;1.40;;
57249;SDS011;43102;52.014;-0.680;2022-08-24T05:31:08;2.10;;;1.40;;
57249;SDS011;43102;52.014;-0.680;2022-08-24T05:32:02;2.10;;;1.40;;
57249;SDS011;43102;52.014;-0.680;2022-08-24T05:33:00;2.10;;;1.40;;
57249;SDS011;43102;52.014;-0.680;2022-08-24T05:34:01;2.10;;;1.40;;
57249;SDS011;43102;52.014;-0.680;2022-08-24T05:35:00;2.10;;;1.40;;
57249;SDS011;43102;52.014;-0.680;2022-08-24T05:36:01;2.10;;;1.40;;
57249;SDS011;43102;52.014;-0.680;2022-08-24T05:37:00;2.10;;;1.40;;
57249;SDS011;43102;52.014;-0.680;2022-08-24T05:38:00;2.10;;;1.40;;
57249;SDS011;43102;52.014;-0.680;2022-08-24T05:39:02;2.10;;;1.40;;
57249;SDS011;43102;52.014;-0.680;2022-08-24T05:40:03;1.60;;;1.40;;
57249;SDS011;43102;52.014;-0.680;2022-08-24T05:41:04;1.60;;;1.40;;
57249;SDS011;43102;52.014;-0.680;2022-08-24T05:42:00;1.60;;;1.40;;
57249;SDS011;43102;52.014;-0.680;2022-08-24T05:43:00;1.60;;;1.40;;
57249;SDS011;43102;52.014;-0.680;2022-08-24T05:44:01;1.60;;;1.40;;
57249;SDS011;43102;52.014;-0.680;2022-08-24T05:45:00;1.60;;;1.40;;
57249;SDS011;43102;52.014;-0.680;2022-08-24T05:46:00;1.60;;;1.40;;
57249;SDS011;43102;52.014;-0.680;2022-08-24T05:47:01;1.60;;;1.40;;
57249;SDS011;43102;52.014;-0.680;2022-08-24T05:48:00;1.60;;;1.40;;
57249;SDS011;43102;52.014;-0.680;2022-08-24T05:49:00;1.60;;;1.40;;
57249;SDS011;43102;52.014;-0.680;2022-08-24T05:50:02;1.60;;;1.40;;
57249;SDS011;43102;52.014;-0.680;2022-08-24T05:51:00;1.60;;;1.40;;
57249;SDS011;43102;52.014;-0.680;2022-08-24T05:52:01;1.60;;;1.40;;
57249;SDS011;43102;52.014;-0.680;2022-08-24T05:53:00;1.60;;;1.40;;
57249;SDS011;43102;52.014;-0.680;2022-08-24T05:54:02;1.60;;;1.40;;
57249;SDS011;43102;52.014;-0.680;2022-08-24T05:55:00;1.60;;;1.40;;
57249;SDS011;43102;52.014;-0.680;2022-08-24T05:56:03;1.60;;;1.40;;
57249;SDS011;43102;52.014;-0.680;2022-08-24T05:57:03;1.60;;;1.40;;